createdAt,value
2023-01-25T00:00:49.634Z,18.50
2023-01-25T00:03:17.746Z,17.50
2023-01-25T00:05:45.842Z,14.00
2023-01-25T00:08:13.852Z,18.50
2023-01-25T00:10:41.945Z,14.00
2023-01-25T00:13:09.977Z,13.50
2023-01-25T00:15:38.040Z,13.50
2023-01-25T00:18:07.434Z,15.00
2023-01-25T00:20:35.479Z,18.60
2023-01-25T00:23:03.569Z,18.00
2023-01-25T00:25:31.613Z,17.00
2023-01-25T00:27:59.644Z,14.80
2023-01-25T00:30:27.794Z,13.00
2023-01-25T00:32:58.978Z,15.40
2023-01-25T00:35:32.652Z,18.00
2023-01-25T00:38:02.172Z,18.40
2023-01-25T00:40:30.303Z,14.00
2023-01-25T00:43:01.173Z,13.60
2023-01-25T00:45:29.271Z,15.00
2023-01-25T00:47:57.406Z,17.00
2023-01-25T00:50:26.066Z,13.20
2023-01-25T00:52:55.480Z,15.60
2023-01-25T00:55:23.673Z,11.00
2023-01-25T00:57:51.738Z,11.60
2023-01-25T01:00:19.994Z,14.00
2023-01-25T01:02:48.308Z,15.50
2023-01-25T01:05:16.571Z,14.00
2023-01-25T01:07:45.015Z,12.25
2023-01-25T01:10:15.265Z,15.00
2023-01-25T01:12:43.308Z,15.00
2023-01-25T01:15:12.512Z,15.75
2023-01-25T01:17:40.578Z,21.00
2023-01-25T01:20:09.520Z,14.00
2023-01-25T01:22:37.554Z,15.40
2023-01-25T01:25:06.760Z,14.50
2023-01-25T01:27:36.319Z,13.00
2023-01-25T01:30:04.523Z,15.00
2023-01-25T01:32:32.856Z,15.00
2023-01-25T01:35:00.987Z,14.00
2023-01-25T01:37:29.017Z,15.00
2023-01-25T01:39:57.067Z,15.40
2023-01-25T01:42:25.127Z,14.00
2023-01-25T01:44:56.045Z,14.00
2023-01-25T01:47:26.907Z,13.00
2023-01-25T01:50:00.635Z,11.00
2023-01-25T01:52:31.852Z,14.00
2023-01-25T01:55:00.932Z,14.50
2023-01-25T01:57:31.362Z,12.00
2023-01-25T02:00:02.370Z,20.50
2023-01-25T02:02:40.945Z,14.50
2023-01-25T02:05:12.225Z,15.00
2023-01-25T02:07:40.359Z,15.00
2023-01-25T02:10:10.782Z,15.00
2023-01-25T02:12:39.143Z,14.50
2023-01-25T02:15:11.964Z,14.00
2023-01-25T02:17:40.351Z,13.50
2023-01-25T02:20:10.601Z,14.00
2023-01-25T02:22:41.301Z,13.80
2023-01-25T02:25:11.668Z,20.25
2023-01-25T02:27:42.175Z,15.75
2023-01-25T02:30:11.437Z,15.00
2023-01-25T02:32:39.481Z,15.50
2023-01-25T02:35:09.053Z,17.20
2023-01-25T02:37:37.504Z,13.60
2023-01-25T02:40:06.884Z,19.60
2023-01-25T02:42:36.472Z,14.00
2023-01-25T02:45:06.912Z,15.60
2023-01-25T02:47:35.348Z,17.00
2023-01-25T02:50:03.683Z,13.00
2023-01-25T02:52:31.745Z,21.00
2023-01-25T02:54:59.767Z,14.60
2023-01-25T02:57:28.322Z,14.00
2023-01-25T02:59:57.885Z,17.00
2023-01-25T03:02:27.039Z,20.00
2023-01-25T03:04:55.148Z,13.33
2023-01-25T03:07:23.981Z,11.00
2023-01-25T03:09:52.013Z,20.50
2023-01-25T03:12:20.491Z,16.50
2023-01-25T03:14:48.503Z,13.60
2023-01-25T03:17:17.877Z,11.00
2023-01-25T03:19:46.573Z,12.20
2023-01-25T03:22:14.631Z,13.00
2023-01-25T03:24:43.059Z,14.25
2023-01-25T03:27:11.972Z,13.20
2023-01-25T03:29:49.974Z,9.50
2023-01-25T03:32:23.799Z,18.50
2023-01-25T03:34:51.834Z,12.80
2023-01-25T03:37:21.012Z,13.00
2023-01-25T03:39:50.222Z,13.20
2023-01-25T03:42:21.488Z,13.60
2023-01-25T03:44:53.475Z,10.40
2023-01-25T03:47:22.969Z,10.40
2023-01-25T03:49:52.548Z,13.00
2023-01-25T03:52:20.841Z,11.40
2023-01-25T03:54:49.170Z,14.80
2023-01-25T03:57:17.237Z,14.00
2023-01-25T03:59:56.453Z,12.20
2023-01-25T04:02:25.915Z,13.00
2023-01-25T04:04:54.361Z,13.40
2023-01-25T04:07:23.201Z,13.00
2023-01-25T04:09:52.184Z,13.80
2023-01-25T04:12:20.522Z,15.50
2023-01-25T04:14:48.641Z,10.00
2023-01-25T04:17:21.927Z,15.00
2023-01-25T04:20:02.507Z,13.20
2023-01-25T04:22:37.036Z,13.33
2023-01-25T04:25:08.236Z,21.50
2023-01-25T04:27:38.263Z,15.00
2023-01-25T04:30:11.706Z,13.50
2023-01-25T04:32:40.037Z,13.25
2023-01-25T04:35:20.955Z,14.00
2023-01-25T04:37:55.094Z,15.00
2023-01-25T04:40:25.357Z,11.00
2023-01-25T04:42:53.566Z,14.00
2023-01-25T04:45:21.652Z,14.75
2023-01-25T04:47:49.801Z,15.75
2023-01-25T04:50:17.939Z,11.67
2023-01-25T04:52:47.926Z,16.60
2023-01-25T04:55:16.089Z,14.00
2023-01-25T04:57:45.236Z,14.00
2023-01-25T05:00:14.025Z,15.00
2023-01-25T05:02:42.068Z,11.00
2023-01-25T05:05:10.995Z,17.80
2023-01-25T05:07:39.232Z,14.00
2023-01-25T05:10:10.218Z,19.00
2023-01-25T05:12:43.074Z,13.00
2023-01-25T05:15:12.307Z,10.80
2023-01-25T05:17:40.446Z,14.00
2023-01-25T05:20:12.445Z,13.25
2023-01-25T05:22:40.553Z,14.60
2023-01-25T05:25:30.508Z,16.60
2023-01-25T05:27:58.025Z,17.50
2023-01-25T05:30:49.588Z,14.00
2023-01-25T05:33:24.884Z,14.75
2023-01-25T05:35:53.876Z,14.00
2023-01-25T05:38:22.396Z,11.80
2023-01-25T05:40:51.763Z,13.40
2023-01-25T05:43:20.401Z,14.00
2023-01-25T05:45:53.847Z,15.00
2023-01-25T05:48:21.922Z,18.50
2023-01-25T05:50:49.909Z,19.00
2023-01-25T05:53:26.276Z,11.50
2023-01-25T05:55:55.693Z,10.60
2023-01-25T05:58:23.873Z,13.40
2023-01-25T06:00:51.887Z,13.50
2023-01-25T06:03:34.315Z,14.20
2023-01-25T06:06:03.066Z,13.25
2023-01-25T06:08:32.801Z,13.00
2023-01-25T06:11:07.735Z,13.00
2023-01-25T06:13:36.454Z,11.00
2023-01-25T06:16:05.427Z,15.80
2023-01-25T06:18:56.410Z,12.40
2023-01-25T06:21:33.383Z,10.20
2023-01-25T06:24:01.421Z,10.25
2023-01-25T06:26:31.596Z,13.80
2023-01-25T06:28:59.618Z,11.00
2023-01-25T06:31:27.716Z,13.80
2023-01-25T06:33:55.834Z,11.00
2023-01-25T06:36:24.183Z,16.25
2023-01-25T06:38:52.717Z,10.75
2023-01-25T06:41:20.844Z,11.80
2023-01-25T06:43:51.549Z,11.40
2023-01-25T06:46:19.774Z,17.50
2023-01-25T06:48:47.860Z,12.20
2023-01-25T06:51:16.138Z,13.00
2023-01-25T06:53:45.189Z,15.20
2023-01-25T06:56:14.163Z,15.40
2023-01-25T06:58:42.292Z,13.25
2023-01-25T07:01:13.856Z,14.00
2023-01-25T07:03:41.970Z,19.00
2023-01-25T07:06:11.057Z,10.00
2023-01-25T07:08:39.808Z,12.33
2023-01-25T07:11:09.617Z,13.00
2023-01-25T07:13:37.975Z,11.40
2023-01-25T07:16:07.437Z,13.00
2023-01-25T07:18:37.729Z,10.00
2023-01-25T07:21:06.204Z,15.00
2023-01-25T07:23:34.652Z,14.60
2023-01-25T07:26:02.734Z,14.00
2023-01-25T07:28:32.003Z,14.75
2023-01-25T07:31:05.898Z,15.40
2023-01-25T07:33:34.045Z,14.00
2023-01-25T07:36:03.585Z,13.75
2023-01-25T07:38:31.667Z,14.00
2023-01-25T07:40:59.668Z,22.00
2023-01-25T07:43:27.829Z,17.60
2023-01-25T07:45:55.844Z,17.25
2023-01-25T07:48:23.843Z,14.75
2023-01-25T07:51:11.631Z,14.20
2023-01-25T07:53:41.219Z,17.60
2023-01-25T07:56:09.433Z,14.00
2023-01-25T07:58:37.456Z,15.67
2023-01-25T08:01:08.791Z,17.40
2023-01-25T08:03:36.902Z,23.00
2023-01-25T08:06:06.276Z,17.80
2023-01-25T08:08:34.691Z,20.00
2023-01-25T08:11:08.975Z,17.80
2023-01-25T08:13:37.040Z,20.00
2023-01-25T08:16:05.557Z,21.40
2023-01-25T08:18:35.846Z,20.20
2023-01-25T08:21:04.121Z,14.40
2023-01-25T08:23:32.189Z,14.00
2023-01-25T08:26:04.616Z,15.00
2023-01-25T08:28:32.807Z,15.00
2023-01-25T08:31:07.336Z,17.00
2023-01-25T08:33:36.115Z,16.60
2023-01-25T08:36:04.245Z,17.00
2023-01-25T08:38:32.523Z,17.60
2023-01-25T08:41:07.214Z,22.00
2023-01-25T08:43:35.323Z,22.00
2023-01-25T08:46:03.361Z,22.60
2023-01-25T08:48:31.384Z,30.00
2023-01-25T08:50:59.484Z,46.00
2023-01-25T08:53:28.667Z,22.60
2023-01-25T08:55:56.675Z,22.80
2023-01-25T08:58:26.101Z,22.00
2023-01-25T09:00:54.107Z,25.60
2023-01-25T09:03:22.402Z,22.60
2023-01-25T09:05:50.425Z,28.40
2023-01-25T09:08:18.448Z,15.40
2023-01-25T09:10:46.420Z,19.00
2023-01-25T09:13:14.493Z,18.00
2023-01-25T09:15:44.497Z,22.00
2023-01-25T09:18:12.586Z,18.00
2023-01-25T09:20:40.836Z,22.00
2023-01-25T09:23:08.898Z,27.50
2023-01-25T09:25:36.894Z,26.00
2023-01-25T09:28:11.442Z,23.00
2023-01-25T09:30:47.166Z,19.50
2023-01-25T09:33:27.547Z,19.00
2023-01-25T09:35:55.559Z,18.60
2023-01-25T09:38:23.677Z,20.00
2023-01-25T09:40:59.198Z,18.00
2023-01-25T09:43:33.812Z,21.50
2023-01-25T09:46:01.985Z,26.40
2023-01-25T09:48:34.371Z,23.00
2023-01-25T09:51:12.400Z,19.00
2023-01-25T09:53:40.477Z,23.50
2023-01-25T09:56:11.477Z,16.00
2023-01-25T09:58:40.916Z,19.20
2023-01-25T10:01:17.787Z,20.00
2023-01-25T10:03:51.572Z,25.50
2023-01-25T10:06:19.583Z,24.00
2023-01-25T10:08:50.986Z,24.40
2023-01-25T10:11:22.530Z,28.20
2023-01-25T10:13:50.773Z,42.40
2023-01-25T10:16:26.147Z,27.50
2023-01-25T10:19:00.972Z,36.50
2023-01-25T10:21:30.860Z,32.50
2023-01-25T10:24:13.993Z,27.50
2023-01-25T10:26:42.947Z,34.80
2023-01-25T10:29:12.679Z,20.00
2023-01-25T10:31:43.673Z,19.75
2023-01-25T10:34:18.304Z,30.00
2023-01-25T10:36:47.590Z,41.25
2023-01-25T10:39:15.987Z,34.25
2023-01-25T10:41:47.389Z,48.75
2023-01-25T10:44:25.425Z,20.60
2023-01-25T10:46:59.066Z,43.75
2023-01-25T10:49:30.841Z,33.60
2023-01-25T10:51:59.211Z,41.20
2023-01-25T10:54:30.014Z,22.20
2023-01-25T10:56:58.204Z,29.40
2023-01-25T10:59:26.761Z,20.40
2023-01-25T11:01:54.862Z,23.00
2023-01-25T11:04:32.148Z,21.00
2023-01-25T11:07:00.319Z,23.40
2023-01-25T11:09:33.161Z,25.00
2023-01-25T11:12:01.853Z,29.40
2023-01-25T11:14:30.777Z,21.00
2023-01-25T11:16:59.688Z,20.80
2023-01-25T11:19:32.407Z,29.25
2023-01-25T11:22:01.220Z,23.80
2023-01-25T11:24:29.823Z,17.40
2023-01-25T11:27:18.541Z,25.00
2023-01-25T11:29:47.890Z,23.20
2023-01-25T11:32:22.596Z,19.60
2023-01-25T11:34:52.096Z,20.40
2023-01-25T11:37:29.852Z,23.25
2023-01-25T11:40:02.288Z,26.00
2023-01-25T11:42:35.375Z,28.40
2023-01-25T11:45:31.872Z,22.00
2023-01-25T11:48:10.559Z,25.50
2023-01-25T11:50:42.401Z,33.20
2023-01-25T11:53:26.125Z,30.40
2023-01-25T11:55:57.062Z,24.25
2023-01-25T11:58:37.199Z,31.50
2023-01-25T12:01:10.044Z,20.60
2023-01-25T12:03:49.983Z,37.60
2023-01-25T12:06:23.067Z,27.20
2023-01-25T12:08:59.802Z,26.00
2023-01-25T12:11:37.391Z,22.00
2023-01-25T12:14:08.604Z,28.00
2023-01-25T12:16:46.112Z,21.00
2023-01-25T12:19:22.294Z,21.00
2023-01-25T12:22:00.461Z,35.80
2023-01-25T12:24:37.687Z,19.40
2023-01-25T12:27:12.495Z,24.00
2023-01-25T12:29:41.873Z,35.80
2023-01-25T12:32:12.225Z,36.00
2023-01-25T12:34:41.766Z,23.00
2023-01-25T12:37:14.370Z,28.00
2023-01-25T12:39:43.854Z,24.40
2023-01-25T12:42:16.392Z,31.20
2023-01-25T12:44:45.686Z,21.75
2023-01-25T12:47:15.841Z,25.50
2023-01-25T12:49:45.377Z,19.40
2023-01-25T12:52:21.777Z,23.75
2023-01-25T12:54:49.908Z,21.50
2023-01-25T12:57:21.157Z,21.75
2023-01-25T12:59:55.097Z,21.80
2023-01-25T13:02:58.647Z,19.00
2023-01-25T13:05:33.957Z,22.60
2023-01-25T13:08:07.837Z,18.40
2023-01-25T13:10:37.113Z,18.00
2023-01-25T13:13:19.039Z,17.50
2023-01-25T13:15:47.095Z,19.50
2023-01-25T13:18:37.089Z,20.00
2023-01-25T13:21:06.625Z,22.00
2023-01-25T13:23:37.838Z,20.60
2023-01-25T13:26:40.664Z,33.75
2023-01-25T13:29:47.338Z,24.00
2023-01-25T13:32:16.340Z,28.75
2023-01-25T13:35:00.268Z,24.60
2023-01-25T13:37:29.712Z,27.00
2023-01-25T13:40:06.018Z,28.00
2023-01-25T13:42:34.372Z,21.40
2023-01-25T13:45:04.255Z,31.50
2023-01-25T13:47:37.864Z,27.50
2023-01-25T13:50:10.867Z,41.25
2023-01-25T13:52:39.205Z,21.40
2023-01-25T13:55:18.440Z,26.20
2023-01-25T13:57:46.462Z,28.00
2023-01-25T14:00:16.612Z,24.00
2023-01-25T14:02:47.208Z,29.20
2023-01-25T14:05:22.277Z,26.00
2023-01-25T14:07:51.503Z,30.80
2023-01-25T14:10:24.210Z,38.00
2023-01-25T14:12:52.323Z,38.50
2023-01-25T14:15:22.340Z,38.60
2023-01-25T14:18:06.007Z,38.25
2023-01-25T14:20:34.151Z,40.20
2023-01-25T14:23:02.167Z,38.75
2023-01-25T14:25:31.714Z,44.25
2023-01-25T14:28:01.310Z,42.00
2023-01-25T14:30:30.109Z,37.00
2023-01-25T14:32:59.139Z,22.60
2023-01-25T14:35:42.751Z,30.00
2023-01-25T14:38:23.689Z,30.50
2023-01-25T14:40:54.880Z,41.80
2023-01-25T14:43:22.928Z,40.20
2023-01-25T14:45:50.966Z,38.00
2023-01-25T14:48:37.691Z,34.00
2023-01-25T14:51:07.488Z,22.20
2023-01-25T14:53:35.480Z,31.60
2023-01-25T14:56:04.971Z,28.50
2023-01-25T14:58:32.968Z,15.75
2023-01-25T15:01:01.860Z,19.60
2023-01-25T15:03:30.165Z,30.80
2023-01-25T15:05:58.633Z,20.00
2023-01-25T15:08:29.220Z,33.00
2023-01-25T15:10:57.913Z,57.50
2023-01-25T15:13:27.715Z,36.80
2023-01-25T15:15:57.964Z,22.40
2023-01-25T15:18:45.178Z,27.00
2023-01-25T15:21:14.027Z,38.00
2023-01-25T15:23:42.467Z,26.00
2023-01-25T15:26:15.523Z,29.00
2023-01-25T15:28:44.898Z,22.60
2023-01-25T15:31:18.672Z,30.50
2023-01-25T15:33:46.707Z,45.20
2023-01-25T15:36:16.063Z,40.00
2023-01-25T15:38:44.149Z,27.00
2023-01-25T15:41:12.412Z,25.00
2023-01-25T15:43:40.512Z,37.40
2023-01-25T15:46:15.158Z,37.00
2023-01-25T15:48:44.278Z,28.00
2023-01-25T15:51:12.652Z,31.50
2023-01-25T15:53:40.704Z,38.50
2023-01-25T15:56:12.022Z,30.60
2023-01-25T15:58:42.063Z,44.00
2023-01-25T16:01:11.485Z,35.40
2023-01-25T16:03:41.601Z,31.75
2023-01-25T16:06:29.950Z,19.50
2023-01-25T16:08:58.871Z,24.00
2023-01-25T16:11:26.962Z,35.60
2023-01-25T16:13:54.972Z,20.00
2023-01-25T16:16:25.028Z,26.00
2023-01-25T16:18:53.109Z,24.50
2023-01-25T16:21:21.155Z,31.75
2023-01-25T16:23:49.178Z,23.50
2023-01-25T16:26:19.948Z,32.20
2023-01-25T16:28:47.964Z,31.00
2023-01-25T16:31:30.217Z,22.00
2023-01-25T16:34:00.512Z,19.75
2023-01-25T16:36:28.566Z,21.60
2023-01-25T16:38:56.570Z,30.00
2023-01-25T16:41:24.612Z,24.00
2023-01-25T16:43:53.602Z,20.60
2023-01-25T16:46:22.518Z,22.33
2023-01-25T16:48:52.412Z,18.00
2023-01-25T16:51:22.896Z,23.40
2023-01-25T16:53:51.663Z,20.00
2023-01-25T16:56:20.523Z,20.00
2023-01-25T16:58:49.871Z,22.00
2023-01-25T17:01:18.604Z,23.00
2023-01-25T17:03:46.705Z,22.60
2023-01-25T17:06:19.888Z,22.00
2023-01-25T17:08:49.325Z,20.00
2023-01-25T17:11:18.837Z,20.00
2023-01-25T17:13:49.694Z,19.00
2023-01-25T17:16:17.887Z,20.00
2023-01-25T17:18:45.893Z,31.75
2023-01-25T17:21:15.027Z,33.75
2023-01-25T17:23:43.116Z,20.25
2023-01-25T17:26:14.319Z,22.75
2023-01-25T17:28:42.463Z,23.60
2023-01-25T17:31:15.204Z,17.00
2023-01-25T17:33:43.270Z,20.00
2023-01-25T17:36:15.010Z,27.00
2023-01-25T17:38:43.227Z,23.25
2023-01-25T17:41:13.642Z,20.00
2023-01-25T17:43:41.655Z,18.50
2023-01-25T17:46:13.607Z,19.50
2023-01-25T17:48:41.661Z,15.80
2023-01-25T17:51:09.760Z,15.80
2023-01-25T17:53:37.762Z,20.20
2023-01-25T17:56:06.417Z,16.20
2023-01-25T17:58:37.618Z,11.00
2023-01-25T18:01:14.082Z,23.60
2023-01-25T18:03:42.494Z,16.00
2023-01-25T18:06:10.817Z,17.00
2023-01-25T18:08:40.297Z,17.80
2023-01-25T18:11:10.284Z,21.00
2023-01-25T18:13:41.597Z,15.00
2023-01-25T18:16:09.906Z,15.00
2023-01-25T18:18:37.929Z,16.50
2023-01-25T18:21:07.564Z,13.00
2023-01-25T18:23:35.704Z,14.00
2023-01-25T18:26:05.404Z,13.40
2023-01-25T18:28:34.089Z,19.75
2023-01-25T18:31:05.681Z,25.50
2023-01-25T18:33:33.781Z,62.50
2023-01-25T18:36:03.933Z,43.00
2023-01-25T18:38:32.979Z,49.25
2023-01-25T18:41:01.124Z,23.00
2023-01-25T18:43:29.130Z,20.50
2023-01-25T18:45:57.722Z,16.60
2023-01-25T18:48:30.551Z,16.20
2023-01-25T18:50:59.370Z,13.40
2023-01-25T18:53:27.472Z,14.00
2023-01-25T18:56:02.264Z,15.00
2023-01-25T18:58:31.652Z,13.00
2023-01-25T19:01:03.956Z,17.60
2023-01-25T19:03:33.324Z,18.60
2023-01-25T19:06:01.392Z,22.40
2023-01-25T19:08:29.426Z,16.20
2023-01-25T19:11:01.349Z,16.50
2023-01-25T19:13:32.159Z,14.00
2023-01-25T19:16:02.241Z,11.20
2023-01-25T19:18:33.221Z,17.00
2023-01-25T19:21:01.268Z,10.00
2023-01-25T19:23:33.832Z,18.00
2023-01-25T19:26:01.855Z,13.25
2023-01-25T19:28:29.896Z,13.00
2023-01-25T19:30:58.105Z,12.50
2023-01-25T19:33:26.223Z,23.80
2023-01-25T19:36:01.356Z,11.00
2023-01-25T19:38:29.379Z,17.40
2023-01-25T19:41:01.140Z,11.00
2023-01-25T19:43:29.154Z,10.50
2023-01-25T19:46:07.495Z,15.20
2023-01-25T19:48:35.840Z,15.00
2023-01-25T19:51:09.973Z,22.00
2023-01-25T19:53:38.024Z,13.40
2023-01-25T19:56:06.819Z,13.80
2023-01-25T19:58:34.831Z,14.75
2023-01-25T20:01:07.201Z,14.20
2023-01-25T20:03:35.449Z,13.00
2023-01-25T20:06:04.106Z,13.00
2023-01-25T20:08:33.674Z,11.00
2023-01-25T20:11:01.977Z,12.20
2023-01-25T20:13:30.038Z,7.00
2023-01-25T20:15:58.093Z,10.00
2023-01-25T20:18:26.125Z,11.00
2023-01-25T20:20:57.903Z,13.25
2023-01-25T20:23:26.009Z,14.20
2023-01-25T20:25:59.205Z,13.00
2023-01-25T20:28:27.417Z,18.20
2023-01-25T20:30:55.506Z,10.40
2023-01-25T20:33:23.538Z,9.00
2023-01-25T20:35:51.560Z,9.00
2023-01-25T20:38:19.566Z,12.00
2023-01-25T20:40:47.594Z,9.60
2023-01-25T20:43:16.938Z,13.50
2023-01-25T20:45:44.966Z,10.50
2023-01-25T20:48:12.962Z,10.00
2023-01-25T20:50:40.989Z,8.20
2023-01-25T20:53:09.005Z,10.00
2023-01-25T20:55:37.076Z,10.60
2023-01-25T20:58:05.585Z,9.25
2023-01-25T21:00:35.013Z,10.00
2023-01-25T21:03:03.021Z,10.75
2023-01-25T21:05:31.019Z,9.40
2023-01-25T21:07:59.044Z,8.00
2023-01-25T21:10:27.062Z,13.60
2023-01-25T21:12:55.089Z,9.40
2023-01-25T21:15:25.517Z,9.00
2023-01-25T21:17:55.031Z,10.60
2023-01-25T21:20:23.075Z,11.80
2023-01-25T21:22:51.086Z,10.00
2023-01-25T21:25:19.131Z,9.00
2023-01-25T21:27:47.164Z,11.00
2023-01-25T21:30:15.733Z,12.60
2023-01-25T21:32:44.252Z,12.40
2023-01-25T21:35:13.600Z,9.00
2023-01-25T21:37:41.793Z,7.00
2023-01-25T21:40:11.013Z,10.00
2023-01-25T21:42:39.052Z,9.67
2023-01-25T21:45:25.906Z,7.80
2023-01-25T21:47:58.042Z,13.00
2023-01-25T21:50:44.871Z,9.40
2023-01-25T21:53:12.865Z,11.00
2023-01-25T21:55:41.026Z,7.00
2023-01-25T21:58:09.039Z,9.60
2023-01-25T22:00:37.259Z,11.00
2023-01-25T22:03:05.323Z,10.60
2023-01-25T22:05:34.686Z,8.20
2023-01-25T22:08:02.742Z,10.00
2023-01-25T22:10:30.733Z,14.33
2023-01-25T22:12:58.764Z,9.00
2023-01-25T22:15:26.807Z,9.00
2023-01-25T22:17:54.885Z,9.00
2023-01-25T22:20:22.885Z,9.40
2023-01-25T22:22:52.274Z,11.00
2023-01-25T22:25:20.271Z,12.20
2023-01-25T22:27:51.823Z,9.20
2023-01-25T22:30:19.772Z,14.00
2023-01-25T22:32:47.799Z,10.50
2023-01-25T22:35:15.851Z,9.00
2023-01-25T22:37:43.871Z,10.00
2023-01-25T22:40:14.371Z,9.80
2023-01-25T22:42:42.398Z,9.50
2023-01-25T22:45:11.078Z,6.00
2023-01-25T22:47:39.113Z,10.00
2023-01-25T22:50:08.048Z,7.00
2023-01-25T22:52:36.255Z,8.00
2023-01-25T22:55:04.386Z,9.00
2023-01-25T22:57:33.764Z,12.00
2023-01-25T23:00:01.762Z,11.00
2023-01-25T23:02:29.829Z,9.60
2023-01-25T23:04:57.858Z,13.00
2023-01-25T23:07:25.924Z,14.40
2023-01-25T23:09:54.118Z,14.00
2023-01-25T23:12:22.196Z,10.00
2023-01-25T23:14:54.778Z,9.00
2023-01-25T23:17:40.965Z,10.00
2023-01-25T23:20:10.516Z,9.00
2023-01-25T23:22:38.702Z,10.75
2023-01-25T23:25:08.977Z,9.25
2023-01-25T23:27:37.015Z,10.60
2023-01-25T23:30:09.373Z,9.00
2023-01-25T23:32:37.624Z,9.75
2023-01-25T23:35:06.583Z,10.40
2023-01-25T23:37:34.622Z,10.60
2023-01-25T23:40:02.635Z,10.00
2023-01-25T23:42:30.664Z,14.50
2023-01-25T23:44:58.667Z,14.00
2023-01-25T23:47:30.797Z,14.00
2023-01-25T23:49:59.011Z,13.20
2023-01-25T23:52:27.062Z,12.75
2023-01-25T23:54:55.056Z,13.00
2023-01-25T23:57:23.105Z,13.00
2023-01-25T23:59:51.110Z,14.00
